sensor_id;sensor_type;location;lat;lon;timestamp;P1;durP1;ratioP1;P2;durP2;ratioP2
17052;SDS011;8643;48.824;11.422;2023-12-29T00:01:30;15.30;;;8.23;;
17052;SDS011;8643;48.824;11.422;2023-12-29T00:04:00;11.93;;;7.10;;
17052;SDS011;8643;48.824;11.422;2023-12-29T00:06:29;13.07;;;7.77;;
17052;SDS011;8643;48.824;11.422;2023-12-29T00:08:58;18.43;;;8.47;;
17052;SDS011;8643;48.824;11.422;2023-12-29T00:11:27;15.17;;;8.27;;
17052;SDS011;8643;48.824;11.422;2023-12-29T00:13:55;15.97;;;8.90;;
17052;SDS011;8643;48.824;11.422;2023-12-29T00:16:24;12.93;;;7.83;;
17052;SDS011;8643;48.824;11.422;2023-12-29T00:18:54;17.97;;;8.87;;
17052;SDS011;8643;48.824;11.422;2023-12-29T00:21:23;14.23;;;8.13;;
17052;SDS011;8643;48.824;11.422;2023-12-29T00:23:51;14.33;;;7.50;;
17052;SDS011;8643;48.824;11.422;2023-12-29T00:26:23;12.73;;;7.03;;
17052;SDS011;8643;48.824;11.422;2023-12-29T00:28:56;11.87;;;7.70;;
17052;SDS011;8643;48.824;11.422;2023-12-29T00:31:25;15.23;;;8.63;;
17052;SDS011;8643;48.824;11.422;2023-12-29T00:33:53;11.83;;;6.70;;
17052;SDS011;8643;48.824;11.422;2023-12-29T00:36:23;12.57;;;6.37;;
17052;SDS011;8643;48.824;11.422;2023-12-29T00:38:52;11.20;;;6.73;;
17052;SDS011;8643;48.824;11.422;2023-12-29T00:41:22;15.20;;;7.40;;
17052;SDS011;8643;48.824;11.422;2023-12-29T00:43:50;15.43;;;7.50;;
17052;SDS011;8643;48.824;11.422;2023-12-29T00:46:20;13.50;;;7.00;;
17052;SDS011;8643;48.824;11.422;2023-12-29T00:48:48;12.77;;;7.03;;
17052;SDS011;8643;48.824;11.422;2023-12-29T00:51:17;12.00;;;6.90;;
17052;SDS011;8643;48.824;11.422;2023-12-29T00:53:45;13.07;;;7.50;;
17052;SDS011;8643;48.824;11.422;2023-12-29T00:56:14;14.90;;;7.30;;
17052;SDS011;8643;48.824;11.422;2023-12-29T00:58:44;11.20;;;6.60;;
17052;SDS011;8643;48.824;11.422;2023-12-29T01:01:12;12.30;;;7.13;;
17052;SDS011;8643;48.824;11.422;2023-12-29T01:03:41;15.30;;;7.53;;
17052;SDS011;8643;48.824;11.422;2023-12-29T01:06:09;12.73;;;7.10;;
17052;SDS011;8643;48.824;11.422;2023-12-29T01:08:38;12.13;;;7.33;;
17052;SDS011;8643;48.824;11.422;2023-12-29T01:11:06;13.23;;;8.17;;
17052;SDS011;8643;48.824;11.422;2023-12-29T01:13:36;14.13;;;7.47;;
17052;SDS011;8643;48.824;11.422;2023-12-29T01:16:06;13.90;;;7.90;;
17052;SDS011;8643;48.824;11.422;2023-12-29T01:18:34;16.87;;;8.20;;
17052;SDS011;8643;48.824;11.422;2023-12-29T01:21:03;11.20;;;6.97;;
17052;SDS011;8643;48.824;11.422;2023-12-29T01:23:33;14.87;;;8.53;;
17052;SDS011;8643;48.824;11.422;2023-12-29T01:26:01;19.20;;;8.53;;
17052;SDS011;8643;48.824;11.422;2023-12-29T01:28:30;14.37;;;8.00;;
17052;SDS011;8643;48.824;11.422;2023-12-29T01:30:59;13.93;;;7.87;;
17052;SDS011;8643;48.824;11.422;2023-12-29T01:33:29;14.37;;;7.63;;
17052;SDS011;8643;48.824;11.422;2023-12-29T01:35:57;16.73;;;8.70;;
17052;SDS011;8643;48.824;11.422;2023-12-29T01:38:40;13.37;;;7.60;;
17052;SDS011;8643;48.824;11.422;2023-12-29T01:41:08;12.93;;;7.60;;
17052;SDS011;8643;48.824;11.422;2023-12-29T01:44:02;12.97;;;7.60;;
17052;SDS011;8643;48.824;11.422;2023-12-29T01:46:50;13.30;;;7.57;;
17052;SDS011;8643;48.824;11.422;2023-12-29T01:49:22;12.47;;;7.33;;
17052;SDS011;8643;48.824;11.422;2023-12-29T01:51:52;14.63;;;7.57;;
17052;SDS011;8643;48.824;11.422;2023-12-29T01:54:25;14.27;;;7.50;;
17052;SDS011;8643;48.824;11.422;2023-12-29T01:57:00;13.23;;;7.77;;
17052;SDS011;8643;48.824;11.422;2023-12-29T01:59:30;12.70;;;7.40;;
17052;SDS011;8643;48.824;11.422;2023-12-29T02:02:00;13.77;;;7.53;;
17052;SDS011;8643;48.824;11.422;2023-12-29T02:04:31;13.07;;;7.40;;
17052;SDS011;8643;48.824;11.422;2023-12-29T02:07:01;13.80;;;7.37;;
17052;SDS011;8643;48.824;11.422;2023-12-29T02:09:29;15.33;;;8.13;;
17052;SDS011;8643;48.824;11.422;2023-12-29T02:12:00;13.67;;;7.30;;
17052;SDS011;8643;48.824;11.422;2023-12-29T02:14:30;15.10;;;7.57;;
17052;SDS011;8643;48.824;11.422;2023-12-29T02:17:01;13.17;;;7.20;;
17052;SDS011;8643;48.824;11.422;2023-12-29T02:19:40;14.83;;;7.67;;
17052;SDS011;8643;48.824;11.422;2023-12-29T02:22:11;13.40;;;7.23;;
17052;SDS011;8643;48.824;11.422;2023-12-29T02:24:45;13.67;;;7.70;;
17052;SDS011;8643;48.824;11.422;2023-12-29T02:27:18;10.90;;;7.13;;
17052;SDS011;8643;48.824;11.422;2023-12-29T02:30:06;12.97;;;7.20;;
17052;SDS011;8643;48.824;11.422;2023-12-29T02:32:39;12.53;;;7.07;;
17052;SDS011;8643;48.824;11.422;2023-12-29T02:35:12;15.67;;;8.13;;
17052;SDS011;8643;48.824;11.422;2023-12-29T02:37:46;15.57;;;8.00;;
17052;SDS011;8643;48.824;11.422;2023-12-29T02:40:17;12.60;;;7.60;;
17052;SDS011;8643;48.824;11.422;2023-12-29T02:42:47;14.87;;;8.30;;
17052;SDS011;8643;48.824;11.422;2023-12-29T02:45:17;15.87;;;7.87;;
17052;SDS011;8643;48.824;11.422;2023-12-29T02:47:46;12.60;;;7.37;;
17052;SDS011;8643;48.824;11.422;2023-12-29T02:50:16;13.43;;;7.73;;
17052;SDS011;8643;48.824;11.422;2023-12-29T02:52:45;15.50;;;8.10;;
17052;SDS011;8643;48.824;11.422;2023-12-29T02:55:13;13.43;;;7.83;;
17052;SDS011;8643;48.824;11.422;2023-12-29T02:57:44;11.03;;;6.43;;
17052;SDS011;8643;48.824;11.422;2023-12-29T03:00:12;14.63;;;7.30;;
17052;SDS011;8643;48.824;11.422;2023-12-29T03:02:41;13.17;;;6.80;;
17052;SDS011;8643;48.824;11.422;2023-12-29T03:05:11;14.27;;;7.50;;
17052;SDS011;8643;48.824;11.422;2023-12-29T03:07:39;14.90;;;7.70;;
17052;SDS011;8643;48.824;11.422;2023-12-29T03:10:08;13.57;;;7.13;;
17052;SDS011;8643;48.824;11.422;2023-12-29T03:12:37;11.53;;;6.73;;
17052;SDS011;8643;48.824;11.422;2023-12-29T03:15:07;13.27;;;7.33;;
17052;SDS011;8643;48.824;11.422;2023-12-29T03:17:36;14.17;;;7.57;;
17052;SDS011;8643;48.824;11.422;2023-12-29T03:20:06;15.13;;;8.20;;
17052;SDS011;8643;48.824;11.422;2023-12-29T03:22:35;14.83;;;8.17;;
17052;SDS011;8643;48.824;11.422;2023-12-29T03:25:04;15.93;;;8.63;;
17052;SDS011;8643;48.824;11.422;2023-12-29T03:27:34;14.17;;;8.27;;
17052;SDS011;8643;48.824;11.422;2023-12-29T03:30:02;14.70;;;8.67;;
17052;SDS011;8643;48.824;11.422;2023-12-29T03:32:33;17.50;;;9.00;;
17052;SDS011;8643;48.824;11.422;2023-12-29T03:35:02;16.67;;;9.70;;
17052;SDS011;8643;48.824;11.422;2023-12-29T03:37:31;20.27;;;10.30;;
17052;SDS011;8643;48.824;11.422;2023-12-29T03:40:00;22.43;;;11.73;;
17052;SDS011;8643;48.824;11.422;2023-12-29T03:42:29;19.73;;;11.17;;
17052;SDS011;8643;48.824;11.422;2023-12-29T03:44:57;22.60;;;11.90;;
17052;SDS011;8643;48.824;11.422;2023-12-29T03:47:25;20.90;;;11.80;;
17052;SDS011;8643;48.824;11.422;2023-12-29T03:49:58;19.37;;;9.93;;
17052;SDS011;8643;48.824;11.422;2023-12-29T03:52:26;18.80;;;10.77;;
17052;SDS011;8643;48.824;11.422;2023-12-29T03:54:55;19.83;;;10.73;;
17052;SDS011;8643;48.824;11.422;2023-12-29T03:57:23;19.20;;;10.90;;
17052;SDS011;8643;48.824;11.422;2023-12-29T03:59:52;19.70;;;10.90;;
17052;SDS011;8643;48.824;11.422;2023-12-29T04:02:21;17.37;;;9.90;;
17052;SDS011;8643;48.824;11.422;2023-12-29T04:04:49;17.77;;;9.47;;
17052;SDS011;8643;48.824;11.422;2023-12-29T04:07:19;15.90;;;9.07;;
17052;SDS011;8643;48.824;11.422;2023-12-29T04:09:47;17.00;;;9.77;;
17052;SDS011;8643;48.824;11.422;2023-12-29T04:12:16;15.50;;;9.77;;
17052;SDS011;8643;48.824;11.422;2023-12-29T04:14:45;16.37;;;8.67;;
17052;SDS011;8643;48.824;11.422;2023-12-29T04:17:14;13.67;;;8.23;;
17052;SDS011;8643;48.824;11.422;2023-12-29T04:19:43;15.37;;;9.03;;
17052;SDS011;8643;48.824;11.422;2023-12-29T04:22:12;17.43;;;8.97;;
17052;SDS011;8643;48.824;11.422;2023-12-29T04:24:42;16.70;;;8.93;;
17052;SDS011;8643;48.824;11.422;2023-12-29T04:27:11;14.33;;;8.53;;
17052;SDS011;8643;48.824;11.422;2023-12-29T04:29:39;13.93;;;8.33;;
17052;SDS011;8643;48.824;11.422;2023-12-29T04:32:08;12.03;;;7.87;;
17052;SDS011;8643;48.824;11.422;2023-12-29T04:34:36;15.80;;;8.90;;
17052;SDS011;8643;48.824;11.422;2023-12-29T04:37:05;17.00;;;8.77;;
17052;SDS011;8643;48.824;11.422;2023-12-29T04:39:33;14.47;;;7.83;;
17052;SDS011;8643;48.824;11.422;2023-12-29T04:42:03;12.83;;;7.40;;
17052;SDS011;8643;48.824;11.422;2023-12-29T04:44:33;16.53;;;8.37;;
17052;SDS011;8643;48.824;11.422;2023-12-29T04:47:02;13.80;;;7.77;;
17052;SDS011;8643;48.824;11.422;2023-12-29T04:49:30;14.20;;;8.20;;
17052;SDS011;8643;48.824;11.422;2023-12-29T04:51:59;15.97;;;8.77;;
17052;SDS011;8643;48.824;11.422;2023-12-29T04:54:28;14.93;;;9.03;;
17052;SDS011;8643;48.824;11.422;2023-12-29T04:56:56;17.43;;;9.83;;
17052;SDS011;8643;48.824;11.422;2023-12-29T04:59:26;15.63;;;8.77;;
17052;SDS011;8643;48.824;11.422;2023-12-29T05:01:55;15.67;;;9.83;;
17052;SDS011;8643;48.824;11.422;2023-12-29T05:04:23;18.97;;;9.50;;
17052;SDS011;8643;48.824;11.422;2023-12-29T05:06:52;18.83;;;9.57;;
17052;SDS011;8643;48.824;11.422;2023-12-29T05:09:20;16.87;;;8.90;;
17052;SDS011;8643;48.824;11.422;2023-12-29T05:11:48;16.47;;;9.40;;
17052;SDS011;8643;48.824;11.422;2023-12-29T05:14:17;19.00;;;9.70;;
17052;SDS011;8643;48.824;11.422;2023-12-29T05:16:47;16.90;;;9.53;;
17052;SDS011;8643;48.824;11.422;2023-12-29T05:19:15;18.17;;;9.40;;
17052;SDS011;8643;48.824;11.422;2023-12-29T05:21:44;17.57;;;9.33;;
17052;SDS011;8643;48.824;11.422;2023-12-29T05:24:12;18.27;;;9.63;;
17052;SDS011;8643;48.824;11.422;2023-12-29T05:26:41;16.53;;;9.70;;
17052;SDS011;8643;48.824;11.422;2023-12-29T05:29:09;17.63;;;8.97;;
17052;SDS011;8643;48.824;11.422;2023-12-29T05:31:37;15.73;;;9.13;;
17052;SDS011;8643;48.824;11.422;2023-12-29T05:34:07;19.00;;;9.17;;
17052;SDS011;8643;48.824;11.422;2023-12-29T05:36:36;14.43;;;8.30;;
17052;SDS011;8643;48.824;11.422;2023-12-29T05:39:05;16.77;;;8.07;;
17052;SDS011;8643;48.824;11.422;2023-12-29T05:41:35;16.80;;;8.57;;
17052;SDS011;8643;48.824;11.422;2023-12-29T05:44:04;12.03;;;7.30;;
17052;SDS011;8643;48.824;11.422;2023-12-29T05:46:32;13.43;;;7.33;;
17052;SDS011;8643;48.824;11.422;2023-12-29T05:49:01;14.00;;;8.03;;
17052;SDS011;8643;48.824;11.422;2023-12-29T05:51:31;14.13;;;8.23;;
17052;SDS011;8643;48.824;11.422;2023-12-29T05:53:59;16.37;;;8.93;;
17052;SDS011;8643;48.824;11.422;2023-12-29T05:56:28;14.20;;;8.40;;
17052;SDS011;8643;48.824;11.422;2023-12-29T05:58:56;13.93;;;7.83;;
17052;SDS011;8643;48.824;11.422;2023-12-29T06:01:25;16.70;;;8.47;;
17052;SDS011;8643;48.824;11.422;2023-12-29T06:03:54;17.43;;;8.67;;
17052;SDS011;8643;48.824;11.422;2023-12-29T06:06:22;13.83;;;8.07;;
17052;SDS011;8643;48.824;11.422;2023-12-29T06:08:55;15.77;;;8.53;;
17052;SDS011;8643;48.824;11.422;2023-12-29T06:11:23;15.87;;;8.40;;
17052;SDS011;8643;48.824;11.422;2023-12-29T06:13:51;14.33;;;7.53;;
17052;SDS011;8643;48.824;11.422;2023-12-29T06:16:20;17.17;;;9.03;;
17052;SDS011;8643;48.824;11.422;2023-12-29T06:18:49;14.50;;;8.57;;
17052;SDS011;8643;48.824;11.422;2023-12-29T06:21:18;15.77;;;9.23;;
17052;SDS011;8643;48.824;11.422;2023-12-29T06:23:47;17.63;;;8.80;;
17052;SDS011;8643;48.824;11.422;2023-12-29T06:26:17;17.93;;;9.53;;
17052;SDS011;8643;48.824;11.422;2023-12-29T06:28:49;18.77;;;8.60;;
17052;SDS011;8643;48.824;11.422;2023-12-29T06:31:18;15.53;;;8.47;;
17052;SDS011;8643;48.824;11.422;2023-12-29T06:33:46;15.13;;;8.93;;
17052;SDS011;8643;48.824;11.422;2023-12-29T06:36:15;14.70;;;8.07;;
17052;SDS011;8643;48.824;11.422;2023-12-29T06:38:43;15.43;;;8.80;;
17052;SDS011;8643;48.824;11.422;2023-12-29T06:41:16;16.37;;;8.10;;
17052;SDS011;8643;48.824;11.422;2023-12-29T06:43:45;18.97;;;9.57;;
17052;SDS011;8643;48.824;11.422;2023-12-29T06:46:13;19.97;;;9.23;;
17052;SDS011;8643;48.824;11.422;2023-12-29T06:48:42;18.10;;;9.97;;
17052;SDS011;8643;48.824;11.422;2023-12-29T06:51:15;18.87;;;10.10;;
17052;SDS011;8643;48.824;11.422;2023-12-29T06:53:45;20.60;;;9.63;;
17052;SDS011;8643;48.824;11.422;2023-12-29T06:56:14;16.80;;;9.00;;
17052;SDS011;8643;48.824;11.422;2023-12-29T06:58:44;17.73;;;8.77;;
17052;SDS011;8643;48.824;11.422;2023-12-29T07:01:13;16.43;;;8.50;;
17052;SDS011;8643;48.824;11.422;2023-12-29T07:03:42;17.17;;;9.93;;
17052;SDS011;8643;48.824;11.422;2023-12-29T07:06:11;19.90;;;8.80;;
17052;SDS011;8643;48.824;11.422;2023-12-29T07:08:40;16.30;;;8.70;;
17052;SDS011;8643;48.824;11.422;2023-12-29T07:11:09;13.43;;;8.23;;
17052;SDS011;8643;48.824;11.422;2023-12-29T07:13:40;16.83;;;8.77;;
17052;SDS011;8643;48.824;11.422;2023-12-29T07:16:09;15.47;;;8.90;;
17052;SDS011;8643;48.824;11.422;2023-12-29T07:18:37;15.63;;;9.30;;
17052;SDS011;8643;48.824;11.422;2023-12-29T07:21:06;18.13;;;9.70;;
17052;SDS011;8643;48.824;11.422;2023-12-29T07:23:34;18.97;;;9.80;;
17052;SDS011;8643;48.824;11.422;2023-12-29T07:26:03;23.77;;;12.03;;
17052;SDS011;8643;48.824;11.422;2023-12-29T07:28:33;20.57;;;10.07;;
17052;SDS011;8643;48.824;11.422;2023-12-29T07:31:03;17.80;;;9.67;;
17052;SDS011;8643;48.824;11.422;2023-12-29T07:33:32;23.00;;;11.37;;
17052;SDS011;8643;48.824;11.422;2023-12-29T07:36:01;20.33;;;11.47;;
17052;SDS011;8643;48.824;11.422;2023-12-29T07:38:30;21.47;;;11.73;;
17052;SDS011;8643;48.824;11.422;2023-12-29T07:40:58;25.93;;;14.60;;
17052;SDS011;8643;48.824;11.422;2023-12-29T07:43:28;28.67;;;15.87;;
17052;SDS011;8643;48.824;11.422;2023-12-29T07:45:56;29.40;;;15.27;;
17052;SDS011;8643;48.824;11.422;2023-12-29T07:48:27;28.10;;;13.90;;
17052;SDS011;8643;48.824;11.422;2023-12-29T07:50:55;27.83;;;14.77;;
17052;SDS011;8643;48.824;11.422;2023-12-29T07:53:32;26.03;;;14.27;;
17052;SDS011;8643;48.824;11.422;2023-12-29T07:56:00;25.43;;;13.33;;
17052;SDS011;8643;48.824;11.422;2023-12-29T07:58:29;26.13;;;13.67;;
17052;SDS011;8643;48.824;11.422;2023-12-29T08:00:57;26.90;;;15.33;;
17052;SDS011;8643;48.824;11.422;2023-12-29T08:03:27;25.20;;;13.47;;
17052;SDS011;8643;48.824;11.422;2023-12-29T08:05:56;27.90;;;13.57;;
17052;SDS011;8643;48.824;11.422;2023-12-29T08:08:24;26.77;;;13.23;;
17052;SDS011;8643;48.824;11.422;2023-12-29T08:10:52;24.83;;;12.10;;
17052;SDS011;8643;48.824;11.422;2023-12-29T08:13:21;22.87;;;12.80;;
17052;SDS011;8643;48.824;11.422;2023-12-29T08:15:49;20.33;;;11.57;;
17052;SDS011;8643;48.824;11.422;2023-12-29T08:18:17;24.87;;;12.53;;
17052;SDS011;8643;48.824;11.422;2023-12-29T08:20:47;22.07;;;12.50;;
17052;SDS011;8643;48.824;11.422;2023-12-29T08:23:16;22.00;;;12.87;;
17052;SDS011;8643;48.824;11.422;2023-12-29T08:25:44;26.33;;;13.03;;
17052;SDS011;8643;48.824;11.422;2023-12-29T08:28:13;25.10;;;12.83;;
17052;SDS011;8643;48.824;11.422;2023-12-29T08:30:43;23.33;;;11.93;;
17052;SDS011;8643;48.824;11.422;2023-12-29T08:33:12;21.40;;;11.50;;
17052;SDS011;8643;48.824;11.422;2023-12-29T08:35:41;21.30;;;11.53;;
17052;SDS011;8643;48.824;11.422;2023-12-29T08:38:12;21.97;;;11.77;;
17052;SDS011;8643;48.824;11.422;2023-12-29T08:40:41;22.37;;;12.20;;
17052;SDS011;8643;48.824;11.422;2023-12-29T08:43:09;24.03;;;12.10;;
17052;SDS011;8643;48.824;11.422;2023-12-29T08:45:38;22.30;;;12.13;;
17052;SDS011;8643;48.824;11.422;2023-12-29T08:48:08;23.63;;;12.33;;
17052;SDS011;8643;48.824;11.422;2023-12-29T08:50:36;20.97;;;12.60;;
17052;SDS011;8643;48.824;11.422;2023-12-29T08:53:05;26.63;;;13.83;;
17052;SDS011;8643;48.824;11.422;2023-12-29T08:55:34;24.03;;;12.37;;
17052;SDS011;8643;48.824;11.422;2023-12-29T08:58:03;20.20;;;11.87;;
17052;SDS011;8643;48.824;11.422;2023-12-29T09:00:32;19.97;;;12.17;;
17052;SDS011;8643;48.824;11.422;2023-12-29T09:03:02;20.70;;;12.20;;
17052;SDS011;8643;48.824;11.422;2023-12-29T09:05:30;19.80;;;11.67;;
17052;SDS011;8643;48.824;11.422;2023-12-29T09:07:59;19.83;;;11.90;;
17052;SDS011;8643;48.824;11.422;2023-12-29T09:10:28;20.37;;;12.27;;
17052;SDS011;8643;48.824;11.422;2023-12-29T09:12:57;20.03;;;12.53;;
17052;SDS011;8643;48.824;11.422;2023-12-29T09:15:26;21.10;;;11.83;;
17052;SDS011;8643;48.824;11.422;2023-12-29T09:17:54;16.93;;;10.37;;
17052;SDS011;8643;48.824;11.422;2023-12-29T09:20:23;17.60;;;10.90;;
17052;SDS011;8643;48.824;11.422;2023-12-29T09:22:52;15.60;;;8.67;;
17052;SDS011;8643;48.824;11.422;2023-12-29T09:25:22;12.00;;;7.63;;
17052;SDS011;8643;48.824;11.422;2023-12-29T09:27:50;12.93;;;8.07;;
17052;SDS011;8643;48.824;11.422;2023-12-29T09:30:21;11.63;;;7.07;;
17052;SDS011;8643;48.824;11.422;2023-12-29T09:32:49;11.00;;;7.20;;
17052;SDS011;8643;48.824;11.422;2023-12-29T09:35:18;10.80;;;7.03;;
17052;SDS011;8643;48.824;11.422;2023-12-29T09:37:47;10.40;;;6.50;;
17052;SDS011;8643;48.824;11.422;2023-12-29T09:40:16;10.13;;;6.43;;
17052;SDS011;8643;48.824;11.422;2023-12-29T09:42:44;9.03;;;6.40;;
17052;SDS011;8643;48.824;11.422;2023-12-29T09:45:15;7.50;;;5.50;;
17052;SDS011;8643;48.824;11.422;2023-12-29T09:47:52;7.17;;;4.80;;
17052;SDS011;8643;48.824;11.422;2023-12-29T09:50:25;9.20;;;5.50;;
17052;SDS011;8643;48.824;11.422;2023-12-29T09:52:54;6.97;;;4.80;;
17052;SDS011;8643;48.824;11.422;2023-12-29T09:55:25;7.77;;;5.00;;
17052;SDS011;8643;48.824;11.422;2023-12-29T09:57:54;8.53;;;5.57;;
17052;SDS011;8643;48.824;11.422;2023-12-29T10:00:25;9.67;;;5.10;;
17052;SDS011;8643;48.824;11.422;2023-12-29T10:02:56;6.27;;;4.40;;
17052;SDS011;8643;48.824;11.422;2023-12-29T10:05:25;6.20;;;4.57;;
17052;SDS011;8643;48.824;11.422;2023-12-29T10:07:54;9.87;;;4.50;;
17052;SDS011;8643;48.824;11.422;2023-12-29T10:10:26;6.63;;;4.33;;
17052;SDS011;8643;48.824;11.422;2023-12-29T10:12:55;6.40;;;4.50;;
17052;SDS011;8643;48.824;11.422;2023-12-29T10:15:29;7.57;;;4.30;;
17052;SDS011;8643;48.824;11.422;2023-12-29T10:18:06;6.13;;;4.20;;
17052;SDS011;8643;48.824;11.422;2023-12-29T10:20:50;4.90;;;3.57;;
17052;SDS011;8643;48.824;11.422;2023-12-29T10:23:31;6.03;;;3.53;;
17052;SDS011;8643;48.824;11.422;2023-12-29T10:26:07;6.67;;;3.20;;
17052;SDS011;8643;48.824;11.422;2023-12-29T10:28:38;7.07;;;3.57;;
17052;SDS011;8643;48.824;11.422;2023-12-29T10:31:09;4.63;;;3.40;;
17052;SDS011;8643;48.824;11.422;2023-12-29T10:33:42;5.37;;;3.50;;
17052;SDS011;8643;48.824;11.422;2023-12-29T10:36:17;4.43;;;3.57;;
17052;SDS011;8643;48.824;11.422;2023-12-29T10:38:45;5.80;;;3.67;;
17052;SDS011;8643;48.824;11.422;2023-12-29T10:41:17;6.53;;;3.60;;
17052;SDS011;8643;48.824;11.422;2023-12-29T10:43:46;4.97;;;3.20;;
17052;SDS011;8643;48.824;11.422;2023-12-29T10:46:20;6.23;;;3.50;;
17052;SDS011;8643;48.824;11.422;2023-12-29T10:48:48;4.70;;;3.07;;
17052;SDS011;8643;48.824;11.422;2023-12-29T10:51:17;7.37;;;3.43;;
17052;SDS011;8643;48.824;11.422;2023-12-29T10:53:55;5.93;;;3.80;;
17052;SDS011;8643;48.824;11.422;2023-12-29T10:56:24;4.53;;;3.23;;
17052;SDS011;8643;48.824;11.422;2023-12-29T10:58:59;6.83;;;3.30;;
17052;SDS011;8643;48.824;11.422;2023-12-29T11:01:31;4.33;;;3.10;;
17052;SDS011;8643;48.824;11.422;2023-12-29T11:04:02;4.00;;;3.17;;
17052;SDS011;8643;48.824;11.422;2023-12-29T11:06:39;4.07;;;2.97;;
17052;SDS011;8643;48.824;11.422;2023-12-29T11:09:10;4.90;;;2.90;;
17052;SDS011;8643;48.824;11.422;2023-12-29T11:11:39;4.87;;;3.10;;
17052;SDS011;8643;48.824;11.422;2023-12-29T11:14:08;4.00;;;2.70;;
17052;SDS011;8643;48.824;11.422;2023-12-29T11:16:40;6.33;;;3.33;;
17052;SDS011;8643;48.824;11.422;2023-12-29T11:19:10;6.90;;;3.50;;
17052;SDS011;8643;48.824;11.422;2023-12-29T11:21:41;5.93;;;3.10;;
17052;SDS011;8643;48.824;11.422;2023-12-29T11:24:12;6.00;;;3.20;;
17052;SDS011;8643;48.824;11.422;2023-12-29T11:26:48;4.37;;;2.87;;
17052;SDS011;8643;48.824;11.422;2023-12-29T11:29:17;4.23;;;2.87;;
17052;SDS011;8643;48.824;11.422;2023-12-29T11:31:48;4.97;;;3.00;;
17052;SDS011;8643;48.824;11.422;2023-12-29T11:34:23;4.67;;;2.97;;
17052;SDS011;8643;48.824;11.422;2023-12-29T11:37:00;4.30;;;3.00;;
17052;SDS011;8643;48.824;11.422;2023-12-29T11:39:55;4.53;;;2.90;;
17052;SDS011;8643;48.824;11.422;2023-12-29T11:42:38;4.97;;;3.10;;
17052;SDS011;8643;48.824;11.422;2023-12-29T11:45:24;5.30;;;3.20;;
17052;SDS011;8643;48.824;11.422;2023-12-29T11:47:59;3.87;;;2.97;;
17052;SDS011;8643;48.824;11.422;2023-12-29T11:50:30;4.53;;;3.03;;
17052;SDS011;8643;48.824;11.422;2023-12-29T11:53:00;4.93;;;3.20;;
17052;SDS011;8643;48.824;11.422;2023-12-29T11:55:29;4.83;;;3.10;;
17052;SDS011;8643;48.824;11.422;2023-12-29T11:58:00;4.50;;;2.97;;
17052;SDS011;8643;48.824;11.422;2023-12-29T12:00:41;4.93;;;2.90;;
17052;SDS011;8643;48.824;11.422;2023-12-29T12:03:16;4.10;;;3.10;;
17052;SDS011;8643;48.824;11.422;2023-12-29T12:05:51;4.23;;;2.90;;
17052;SDS011;8643;48.824;11.422;2023-12-29T12:08:26;3.35;;;2.70;;
17052;SDS011;8643;48.824;11.422;2023-12-29T12:10:59;4.97;;;2.80;;
17052;SDS011;8643;48.824;11.422;2023-12-29T12:14:11;4.43;;;2.80;;
17052;SDS011;8643;48.824;11.422;2023-12-29T12:17:15;4.67;;;3.03;;
17052;SDS011;8643;48.824;11.422;2023-12-29T12:20:04;6.23;;;3.10;;
17052;SDS011;8643;48.824;11.422;2023-12-29T12:22:37;5.77;;;3.10;;
17052;SDS011;8643;48.824;11.422;2023-12-29T12:25:07;4.53;;;3.00;;
17052;SDS011;8643;48.824;11.422;2023-12-29T12:27:38;5.47;;;3.30;;
17052;SDS011;8643;48.824;11.422;2023-12-29T12:30:07;6.63;;;3.40;;
17052;SDS011;8643;48.824;11.422;2023-12-29T12:32:37;7.13;;;3.70;;
17052;SDS011;8643;48.824;11.422;2023-12-29T12:35:14;5.77;;;3.60;;
17052;SDS011;8643;48.824;11.422;2023-12-29T12:37:46;5.97;;;3.77;;
17052;SDS011;8643;48.824;11.422;2023-12-29T12:40:24;8.77;;;4.00;;
17052;SDS011;8643;48.824;11.422;2023-12-29T12:42:54;5.80;;;3.20;;
17052;SDS011;8643;48.824;11.422;2023-12-29T12:45:22;7.67;;;3.97;;
17052;SDS011;8643;48.824;11.422;2023-12-29T12:48:00;8.50;;;4.50;;
17052;SDS011;8643;48.824;11.422;2023-12-29T12:50:43;9.47;;;4.50;;
17052;SDS011;8643;48.824;11.422;2023-12-29T12:53:14;12.87;;;5.13;;
17052;SDS011;8643;48.824;11.422;2023-12-29T12:55:47;6.77;;;3.13;;
17052;SDS011;8643;48.824;11.422;2023-12-29T12:58:17;5.20;;;3.10;;
17052;SDS011;8643;48.824;11.422;2023-12-29T13:00:47;6.43;;;3.40;;
17052;SDS011;8643;48.824;11.422;2023-12-29T13:03:21;4.53;;;3.37;;
17052;SDS011;8643;48.824;11.422;2023-12-29T13:05:51;5.53;;;3.33;;
17052;SDS011;8643;48.824;11.422;2023-12-29T13:08:21;5.37;;;3.30;;
17052;SDS011;8643;48.824;11.422;2023-12-29T13:11:02;5.03;;;3.00;;
17052;SDS011;8643;48.824;11.422;2023-12-29T13:13:35;6.32;;;3.10;;
17052;SDS011;8643;48.824;11.422;2023-12-29T13:16:05;4.60;;;2.93;;
17052;SDS011;8643;48.824;11.422;2023-12-29T13:18:34;5.97;;;3.03;;
17052;SDS011;8643;48.824;11.422;2023-12-29T13:21:05;4.18;;;3.00;;
17052;SDS011;8643;48.824;11.422;2023-12-29T13:23:35;5.17;;;3.27;;
17052;SDS011;8643;48.824;11.422;2023-12-29T13:26:05;4.68;;;2.90;;
17052;SDS011;8643;48.824;11.422;2023-12-29T13:28:36;4.00;;;2.90;;
17052;SDS011;8643;48.824;11.422;2023-12-29T13:31:07;3.75;;;2.78;;
17052;SDS011;8643;48.824;11.422;2023-12-29T13:33:42;5.97;;;2.57;;
17052;SDS011;8643;48.824;11.422;2023-12-29T13:36:24;5.05;;;3.10;;
17052;SDS011;8643;48.824;11.422;2023-12-29T13:39:06;4.47;;;3.00;;
17052;SDS011;8643;48.824;11.422;2023-12-29T13:41:42;5.95;;;3.60;;
17052;SDS011;8643;48.824;11.422;2023-12-29T13:44:12;4.90;;;2.90;;
17052;SDS011;8643;48.824;11.422;2023-12-29T13:46:41;3.55;;;2.30;;
17052;SDS011;8643;48.824;11.422;2023-12-29T13:49:10;4.07;;;3.08;;
17052;SDS011;8643;48.824;11.422;2023-12-29T13:51:43;4.13;;;2.80;;
17052;SDS011;8643;48.824;11.422;2023-12-29T13:54:12;5.18;;;2.97;;
17052;SDS011;8643;48.824;11.422;2023-12-29T13:56:50;5.90;;;2.83;;
17052;SDS011;8643;48.824;11.422;2023-12-29T13:59:28;4.93;;;2.97;;
17052;SDS011;8643;48.824;11.422;2023-12-29T14:01:58;3.77;;;2.40;;
17052;SDS011;8643;48.824;11.422;2023-12-29T14:04:46;3.43;;;2.50;;
17052;SDS011;8643;48.824;11.422;2023-12-29T14:07:16;2.80;;;2.30;;
17052;SDS011;8643;48.824;11.422;2023-12-29T14:09:53;3.80;;;2.67;;
17052;SDS011;8643;48.824;11.422;2023-12-29T14:12:23;5.10;;;2.30;;
17052;SDS011;8643;48.824;11.422;2023-12-29T14:14:52;3.87;;;2.70;;
17052;SDS011;8643;48.824;11.422;2023-12-29T14:17:22;3.80;;;2.50;;
17052;SDS011;8643;48.824;11.422;2023-12-29T14:19:51;4.30;;;2.67;;
17052;SDS011;8643;48.824;11.422;2023-12-29T14:22:22;4.20;;;2.57;;
17052;SDS011;8643;48.824;11.422;2023-12-29T14:24:58;4.57;;;2.80;;
17052;SDS011;8643;48.824;11.422;2023-12-29T14:27:30;3.50;;;2.70;;
17052;SDS011;8643;48.824;11.422;2023-12-29T14:29:58;4.83;;;2.80;;
17052;SDS011;8643;48.824;11.422;2023-12-29T14:32:28;4.43;;;2.77;;
17052;SDS011;8643;48.824;11.422;2023-12-29T14:34:58;4.80;;;2.87;;
17052;SDS011;8643;48.824;11.422;2023-12-29T14:37:27;3.40;;;2.50;;
17052;SDS011;8643;48.824;11.422;2023-12-29T14:39:56;6.67;;;2.47;;
17052;SDS011;8643;48.824;11.422;2023-12-29T14:42:24;4.50;;;2.50;;
17052;SDS011;8643;48.824;11.422;2023-12-29T14:44:53;3.80;;;2.63;;
17052;SDS011;8643;48.824;11.422;2023-12-29T14:47:21;3.73;;;2.50;;
17052;SDS011;8643;48.824;11.422;2023-12-29T14:49:50;5.67;;;2.80;;
17052;SDS011;8643;48.824;11.422;2023-12-29T14:52:18;7.00;;;3.20;;
17052;SDS011;8643;48.824;11.422;2023-12-29T14:54:49;4.60;;;3.10;;
17052;SDS011;8643;48.824;11.422;2023-12-29T14:57:17;6.73;;;3.30;;